sensor_id;sensor_type;location;lat;lon;timestamp;P1;durP1;ratioP1;P2;durP2;ratioP2
7833;SDS011;3962;42.696;23.354;2023-04-12T00:01:56;15.73;;;10.53;;
7833;SDS011;3962;42.696;23.354;2023-04-12T00:04:25;16.70;;;11.30;;
7833;SDS011;3962;42.696;23.354;2023-04-12T00:06:54;17.43;;;10.90;;
7833;SDS011;3962;42.696;23.354;2023-04-12T00:09:22;16.03;;;11.30;;
7833;SDS011;3962;42.696;23.354;2023-04-12T00:11:48;15.40;;;10.60;;
7833;SDS011;3962;42.696;23.354;2023-04-12T00:14:18;18.07;;;10.80;;
7833;SDS011;3962;42.696;23.354;2023-04-12T00:16:46;15.57;;;10.27;;
7833;SDS011;3962;42.696;23.354;2023-04-12T00:19:14;14.73;;;10.13;;
7833;SDS011;3962;42.696;23.354;2023-04-12T00:21:41;14.17;;;11.00;;
7833;SDS011;3962;42.696;23.354;2023-04-12T00:24:08;17.17;;;11.50;;
7833;SDS011;3962;42.696;23.354;2023-04-12T00:26:38;16.80;;;10.87;;
7833;SDS011;3962;42.696;23.354;2023-04-12T00:29:04;15.50;;;10.97;;
7833;SDS011;3962;42.696;23.354;2023-04-12T00:31:34;14.27;;;10.43;;
7833;SDS011;3962;42.696;23.354;2023-04-12T00:34:03;17.60;;;10.83;;
7833;SDS011;3962;42.696;23.354;2023-04-12T00:36:30;17.80;;;11.67;;
7833;SDS011;3962;42.696;23.354;2023-04-12T00:38:57;15.70;;;10.57;;
7833;SDS011;3962;42.696;23.354;2023-04-12T00:41:24;17.63;;;11.10;;
7833;SDS011;3962;42.696;23.354;2023-04-12T00:43:53;16.53;;;11.27;;
7833;SDS011;3962;42.696;23.354;2023-04-12T00:46:23;15.03;;;11.00;;
7833;SDS011;3962;42.696;23.354;2023-04-12T00:48:51;17.47;;;11.97;;
7833;SDS011;3962;42.696;23.354;2023-04-12T00:51:19;16.73;;;11.50;;
7833;SDS011;3962;42.696;23.354;2023-04-12T00:53:46;15.53;;;11.03;;
7833;SDS011;3962;42.696;23.354;2023-04-12T00:56:14;15.70;;;11.37;;
7833;SDS011;3962;42.696;23.354;2023-04-12T00:58:41;18.80;;;11.60;;
7833;SDS011;3962;42.696;23.354;2023-04-12T01:01:08;18.03;;;10.67;;
7833;SDS011;3962;42.696;23.354;2023-04-12T01:03:35;20.70;;;11.53;;
7833;SDS011;3962;42.696;23.354;2023-04-12T01:06:10;19.00;;;11.20;;
7833;SDS011;3962;42.696;23.354;2023-04-12T01:08:42;17.60;;;11.97;;
7833;SDS011;3962;42.696;23.354;2023-04-12T01:11:19;17.73;;;11.67;;
7833;SDS011;3962;42.696;23.354;2023-04-12T01:13:58;17.67;;;11.43;;
7833;SDS011;3962;42.696;23.354;2023-04-12T01:16:30;17.43;;;12.43;;
7833;SDS011;3962;42.696;23.354;2023-04-12T01:19:03;16.23;;;11.57;;
7833;SDS011;3962;42.696;23.354;2023-04-12T01:21:44;15.77;;;11.23;;
7833;SDS011;3962;42.696;23.354;2023-04-12T01:24:31;17.60;;;11.43;;
7833;SDS011;3962;42.696;23.354;2023-04-12T01:29:54;22.83;;;11.33;;
7833;SDS011;3962;42.696;23.354;2023-04-12T01:32:29;16.10;;;11.57;;
7833;SDS011;3962;42.696;23.354;2023-04-12T01:34:58;15.53;;;10.17;;
7833;SDS011;3962;42.696;23.354;2023-04-12T01:37:28;20.43;;;13.07;;
7833;SDS011;3962;42.696;23.354;2023-04-12T01:39:58;20.83;;;12.10;;
7833;SDS011;3962;42.696;23.354;2023-04-12T01:42:31;20.47;;;11.90;;
7833;SDS011;3962;42.696;23.354;2023-04-12T01:44:58;19.03;;;12.57;;
7833;SDS011;3962;42.696;23.354;2023-04-12T01:47:26;18.80;;;11.70;;
7833;SDS011;3962;42.696;23.354;2023-04-12T01:49:54;22.27;;;12.67;;
7833;SDS011;3962;42.696;23.354;2023-04-12T01:52:30;27.50;;;13.97;;
7833;SDS011;3962;42.696;23.354;2023-04-12T01:55:01;21.77;;;13.33;;
7833;SDS011;3962;42.696;23.354;2023-04-12T01:57:31;22.53;;;13.10;;
7833;SDS011;3962;42.696;23.354;2023-04-12T01:59:58;19.40;;;12.67;;
7833;SDS011;3962;42.696;23.354;2023-04-12T02:02:30;21.37;;;12.70;;
7833;SDS011;3962;42.696;23.354;2023-04-12T02:05:00;21.50;;;13.10;;
7833;SDS011;3962;42.696;23.354;2023-04-12T02:07:28;21.20;;;13.50;;
7833;SDS011;3962;42.696;23.354;2023-04-12T02:09:55;21.30;;;14.57;;
7833;SDS011;3962;42.696;23.354;2023-04-12T02:12:22;21.90;;;13.93;;
7833;SDS011;3962;42.696;23.354;2023-04-12T02:14:50;23.00;;;13.00;;
7833;SDS011;3962;42.696;23.354;2023-04-12T02:17:17;19.47;;;12.80;;
7833;SDS011;3962;42.696;23.354;2023-04-12T02:19:45;20.60;;;12.83;;
7833;SDS011;3962;42.696;23.354;2023-04-12T02:22:12;24.90;;;14.13;;
7833;SDS011;3962;42.696;23.354;2023-04-12T02:24:40;19.47;;;12.93;;
7833;SDS011;3962;42.696;23.354;2023-04-12T02:27:06;21.90;;;14.00;;
7833;SDS011;3962;42.696;23.354;2023-04-12T02:29:33;20.37;;;13.40;;
7833;SDS011;3962;42.696;23.354;2023-04-12T02:32:01;19.53;;;13.33;;
7833;SDS011;3962;42.696;23.354;2023-04-12T02:34:28;23.03;;;13.47;;
7833;SDS011;3962;42.696;23.354;2023-04-12T02:36:58;22.10;;;13.70;;
7833;SDS011;3962;42.696;23.354;2023-04-12T02:39:25;20.57;;;14.47;;
7833;SDS011;3962;42.696;23.354;2023-04-12T02:41:53;22.70;;;13.27;;
7833;SDS011;3962;42.696;23.354;2023-04-12T02:44:20;21.83;;;13.73;;
7833;SDS011;3962;42.696;23.354;2023-04-12T02:46:47;22.00;;;12.57;;
7833;SDS011;3962;42.696;23.354;2023-04-12T02:49:15;20.53;;;13.10;;
7833;SDS011;3962;42.696;23.354;2023-04-12T02:51:42;23.70;;;13.63;;
7833;SDS011;3962;42.696;23.354;2023-04-12T02:54:09;23.93;;;13.73;;
7833;SDS011;3962;42.696;23.354;2023-04-12T02:56:36;20.83;;;13.37;;
7833;SDS011;3962;42.696;23.354;2023-04-12T02:59:03;19.93;;;13.17;;
7833;SDS011;3962;42.696;23.354;2023-04-12T03:01:31;22.67;;;14.47;;
7833;SDS011;3962;42.696;23.354;2023-04-12T03:03:58;21.40;;;13.60;;
7833;SDS011;3962;42.696;23.354;2023-04-12T03:06:27;20.10;;;13.40;;
7833;SDS011;3962;42.696;23.354;2023-04-12T03:08:54;23.07;;;14.77;;
7833;SDS011;3962;42.696;23.354;2023-04-12T03:11:21;23.50;;;13.77;;
7833;SDS011;3962;42.696;23.354;2023-04-12T03:13:48;24.33;;;15.27;;
7833;SDS011;3962;42.696;23.354;2023-04-12T03:16:20;21.97;;;14.73;;
7833;SDS011;3962;42.696;23.354;2023-04-12T03:18:48;22.97;;;14.20;;
7833;SDS011;3962;42.696;23.354;2023-04-12T03:21:15;27.30;;;15.77;;
7833;SDS011;3962;42.696;23.354;2023-04-12T03:23:44;27.15;;;16.98;;
7833;SDS011;3962;42.696;23.354;2023-04-12T03:26:11;28.57;;;16.93;;
7833;SDS011;3962;42.696;23.354;2023-04-12T03:28:38;22.37;;;15.50;;
7833;SDS011;3962;42.696;23.354;2023-04-12T03:31:05;23.17;;;15.63;;
7833;SDS011;3962;42.696;23.354;2023-04-12T03:33:32;26.20;;;15.77;;
7833;SDS011;3962;42.696;23.354;2023-04-12T03:35:59;26.87;;;16.20;;
7833;SDS011;3962;42.696;23.354;2023-04-12T03:38:26;25.03;;;16.40;;
7833;SDS011;3962;42.696;23.354;2023-04-12T03:40:54;24.73;;;16.10;;
7833;SDS011;3962;42.696;23.354;2023-04-12T03:43:21;27.53;;;17.00;;
7833;SDS011;3962;42.696;23.354;2023-04-12T03:45:48;24.20;;;15.93;;
7833;SDS011;3962;42.696;23.354;2023-04-12T03:48:16;26.83;;;16.80;;
7833;SDS011;3962;42.696;23.354;2023-04-12T03:50:42;24.53;;;15.77;;
7833;SDS011;3962;42.696;23.354;2023-04-12T03:53:09;26.67;;;15.97;;
7833;SDS011;3962;42.696;23.354;2023-04-12T03:55:36;26.77;;;16.47;;
7833;SDS011;3962;42.696;23.354;2023-04-12T03:58:06;25.80;;;15.77;;
7833;SDS011;3962;42.696;23.354;2023-04-12T04:00:32;27.37;;;16.90;;
7833;SDS011;3962;42.696;23.354;2023-04-12T04:02:59;26.13;;;15.83;;
7833;SDS011;3962;42.696;23.354;2023-04-12T04:05:29;23.73;;;15.53;;
7833;SDS011;3962;42.696;23.354;2023-04-12T04:07:56;24.70;;;16.30;;
7833;SDS011;3962;42.696;23.354;2023-04-12T04:10:25;28.60;;;18.37;;
7833;SDS011;3962;42.696;23.354;2023-04-12T04:12:52;26.50;;;16.37;;
7833;SDS011;3962;42.696;23.354;2023-04-12T04:15:20;27.80;;;16.27;;
7833;SDS011;3962;42.696;23.354;2023-04-12T04:17:47;26.17;;;16.77;;
7833;SDS011;3962;42.696;23.354;2023-04-12T04:20:14;24.50;;;16.37;;
7833;SDS011;3962;42.696;23.354;2023-04-12T04:22:42;29.30;;;16.77;;
7833;SDS011;3962;42.696;23.354;2023-04-12T04:25:12;26.00;;;15.17;;
7833;SDS011;3962;42.696;23.354;2023-04-12T04:27:39;25.53;;;16.00;;
7833;SDS011;3962;42.696;23.354;2023-04-12T04:30:09;25.73;;;16.63;;
7833;SDS011;3962;42.696;23.354;2023-04-12T04:32:38;27.87;;;17.63;;
7833;SDS011;3962;42.696;23.354;2023-04-12T04:35:06;23.80;;;15.07;;
7833;SDS011;3962;42.696;23.354;2023-04-12T04:37:33;27.03;;;16.67;;
7833;SDS011;3962;42.696;23.354;2023-04-12T04:40:00;25.67;;;16.60;;
7833;SDS011;3962;42.696;23.354;2023-04-12T04:42:31;33.03;;;15.50;;
7833;SDS011;3962;42.696;23.354;2023-04-12T04:44:58;26.30;;;16.37;;
7833;SDS011;3962;42.696;23.354;2023-04-12T04:47:28;25.03;;;15.77;;
7833;SDS011;3962;42.696;23.354;2023-04-12T04:49:56;27.73;;;16.57;;
7833;SDS011;3962;42.696;23.354;2023-04-12T04:52:24;26.50;;;14.90;;
7833;SDS011;3962;42.696;23.354;2023-04-12T04:54:51;26.73;;;16.47;;
7833;SDS011;3962;42.696;23.354;2023-04-12T04:57:21;24.73;;;16.07;;
7833;SDS011;3962;42.696;23.354;2023-04-12T04:59:48;23.47;;;14.60;;
7833;SDS011;3962;42.696;23.354;2023-04-12T05:02:15;24.37;;;15.53;;
7833;SDS011;3962;42.696;23.354;2023-04-12T05:04:42;26.40;;;15.23;;
7833;SDS011;3962;42.696;23.354;2023-04-12T05:07:10;25.17;;;15.80;;
7833;SDS011;3962;42.696;23.354;2023-04-12T05:09:38;22.57;;;14.50;;
7833;SDS011;3962;42.696;23.354;2023-04-12T05:12:05;26.50;;;14.53;;
7833;SDS011;3962;42.696;23.354;2023-04-12T05:14:32;23.03;;;13.80;;
7833;SDS011;3962;42.696;23.354;2023-04-12T05:17:00;19.17;;;12.77;;
7833;SDS011;3962;42.696;23.354;2023-04-12T05:19:26;26.33;;;15.03;;
7833;SDS011;3962;42.696;23.354;2023-04-12T05:21:53;20.10;;;13.70;;
7833;SDS011;3962;42.696;23.354;2023-04-12T05:24:21;20.50;;;13.10;;
7833;SDS011;3962;42.696;23.354;2023-04-12T05:26:48;19.10;;;13.03;;
7833;SDS011;3962;42.696;23.354;2023-04-12T05:29:16;19.63;;;12.77;;
7833;SDS011;3962;42.696;23.354;2023-04-12T05:31:43;19.20;;;12.10;;
7833;SDS011;3962;42.696;23.354;2023-04-12T05:34:09;20.00;;;12.93;;
7833;SDS011;3962;42.696;23.354;2023-04-12T05:36:37;16.70;;;10.57;;
7833;SDS011;3962;42.696;23.354;2023-04-12T05:39:03;19.00;;;11.33;;
7833;SDS011;3962;42.696;23.354;2023-04-12T05:41:31;16.87;;;10.47;;
7833;SDS011;3962;42.696;23.354;2023-04-12T05:43:58;18.47;;;11.00;;
7833;SDS011;3962;42.696;23.354;2023-04-12T05:46:25;16.57;;;9.53;;
7833;SDS011;3962;42.696;23.354;2023-04-12T05:48:52;14.60;;;10.10;;
7833;SDS011;3962;42.696;23.354;2023-04-12T05:51:19;17.60;;;10.33;;
7833;SDS011;3962;42.696;23.354;2023-04-12T05:53:45;15.77;;;9.30;;
7833;SDS011;3962;42.696;23.354;2023-04-12T05:56:12;12.70;;;8.93;;
7833;SDS011;3962;42.696;23.354;2023-04-12T05:58:40;14.87;;;9.13;;
7833;SDS011;3962;42.696;23.354;2023-04-12T06:01:07;16.43;;;10.33;;
7833;SDS011;3962;42.696;23.354;2023-04-12T06:03:35;15.07;;;8.87;;
7833;SDS011;3962;42.696;23.354;2023-04-12T06:06:06;14.20;;;7.73;;
7833;SDS011;3962;42.696;23.354;2023-04-12T06:08:34;14.63;;;7.83;;
7833;SDS011;3962;42.696;23.354;2023-04-12T06:11:02;13.87;;;8.53;;
7833;SDS011;3962;42.696;23.354;2023-04-12T06:13:29;11.97;;;7.57;;
7833;SDS011;3962;42.696;23.354;2023-04-12T06:15:57;13.50;;;8.30;;
7833;SDS011;3962;42.696;23.354;2023-04-12T06:18:24;13.17;;;8.33;;
7833;SDS011;3962;42.696;23.354;2023-04-12T06:20:51;13.77;;;8.67;;
7833;SDS011;3962;42.696;23.354;2023-04-12T06:23:18;15.83;;;7.97;;
7833;SDS011;3962;42.696;23.354;2023-04-12T06:25:45;10.03;;;7.33;;
7833;SDS011;3962;42.696;23.354;2023-04-12T06:28:13;14.10;;;7.73;;
7833;SDS011;3962;42.696;23.354;2023-04-12T06:30:42;11.90;;;7.40;;
7833;SDS011;3962;42.696;23.354;2023-04-12T06:33:24;11.90;;;8.10;;
7833;SDS011;3962;42.696;23.354;2023-04-12T06:35:51;11.07;;;7.67;;
7833;SDS011;3962;42.696;23.354;2023-04-12T06:38:18;10.20;;;6.53;;
7833;SDS011;3962;42.696;23.354;2023-04-12T06:40:45;12.80;;;7.20;;
7833;SDS011;3962;42.696;23.354;2023-04-12T06:43:13;11.27;;;7.37;;
7833;SDS011;3962;42.696;23.354;2023-04-12T06:45:43;11.40;;;7.47;;
7833;SDS011;3962;42.696;23.354;2023-04-12T06:48:10;10.43;;;6.83;;
7833;SDS011;3962;42.696;23.354;2023-04-12T06:50:39;9.23;;;6.70;;
7833;SDS011;3962;42.696;23.354;2023-04-12T06:53:05;8.40;;;6.20;;
7833;SDS011;3962;42.696;23.354;2023-04-12T06:55:33;8.30;;;5.60;;
7833;SDS011;3962;42.696;23.354;2023-04-12T06:57:59;10.80;;;6.10;;
7833;SDS011;3962;42.696;23.354;2023-04-12T07:00:26;10.60;;;6.10;;
7833;SDS011;3962;42.696;23.354;2023-04-12T07:02:53;10.37;;;6.10;;
7833;SDS011;3962;42.696;23.354;2023-04-12T07:05:20;8.80;;;5.47;;
7833;SDS011;3962;42.696;23.354;2023-04-12T07:07:48;10.37;;;6.00;;
7833;SDS011;3962;42.696;23.354;2023-04-12T07:10:15;6.10;;;4.90;;
7833;SDS011;3962;42.696;23.354;2023-04-12T07:12:42;6.73;;;5.50;;
7833;SDS011;3962;42.696;23.354;2023-04-12T07:15:09;9.67;;;6.53;;
7833;SDS011;3962;42.696;23.354;2023-04-12T07:17:36;7.57;;;5.90;;
7833;SDS011;3962;42.696;23.354;2023-04-12T07:20:03;10.97;;;6.33;;
7833;SDS011;3962;42.696;23.354;2023-04-12T07:22:31;6.43;;;5.47;;
7833;SDS011;3962;42.696;23.354;2023-04-12T07:24:59;8.33;;;5.97;;
7833;SDS011;3962;42.696;23.354;2023-04-12T07:27:26;11.80;;;5.87;;
7833;SDS011;3962;42.696;23.354;2023-04-12T07:29:53;6.80;;;5.27;;
7833;SDS011;3962;42.696;23.354;2023-04-12T07:32:20;6.53;;;5.73;;
7833;SDS011;3962;42.696;23.354;2023-04-12T07:34:46;8.73;;;6.03;;
7833;SDS011;3962;42.696;23.354;2023-04-12T07:37:14;7.33;;;5.23;;
7833;SDS011;3962;42.696;23.354;2023-04-12T07:39:42;6.47;;;5.63;;
7833;SDS011;3962;42.696;23.354;2023-04-12T07:42:10;9.73;;;6.27;;
7833;SDS011;3962;42.696;23.354;2023-04-12T07:44:36;7.63;;;5.97;;
7833;SDS011;3962;42.696;23.354;2023-04-12T07:47:03;6.73;;;5.90;;
7833;SDS011;3962;42.696;23.354;2023-04-12T07:49:31;4.93;;;4.53;;
7833;SDS011;3962;42.696;23.354;2023-04-12T07:51:58;6.63;;;5.40;;
7833;SDS011;3962;42.696;23.354;2023-04-12T07:54:26;7.60;;;5.07;;
7833;SDS011;3962;42.696;23.354;2023-04-12T07:56:56;4.63;;;4.23;;
7833;SDS011;3962;42.696;23.354;2023-04-12T07:59:26;7.13;;;4.20;;
7833;SDS011;3962;42.696;23.354;2023-04-12T08:01:53;5.53;;;3.80;;
7833;SDS011;3962;42.696;23.354;2023-04-12T08:04:20;4.60;;;4.03;;
7833;SDS011;3962;42.696;23.354;2023-04-12T08:06:46;6.80;;;4.23;;
7833;SDS011;3962;42.696;23.354;2023-04-12T08:09:13;6.73;;;3.70;;
7833;SDS011;3962;42.696;23.354;2023-04-12T08:11:40;6.30;;;3.57;;
7833;SDS011;3962;42.696;23.354;2023-04-12T08:14:07;4.90;;;4.03;;
7833;SDS011;3962;42.696;23.354;2023-04-12T08:16:36;5.80;;;4.10;;
7833;SDS011;3962;42.696;23.354;2023-04-12T08:19:02;6.07;;;4.10;;
7833;SDS011;3962;42.696;23.354;2023-04-12T08:21:29;3.73;;;3.03;;
7833;SDS011;3962;42.696;23.354;2023-04-12T08:23:56;8.43;;;3.50;;
7833;SDS011;3962;42.696;23.354;2023-04-12T08:26:23;3.37;;;2.83;;
7833;SDS011;3962;42.696;23.354;2023-04-12T08:28:50;3.10;;;2.80;;
7833;SDS011;3962;42.696;23.354;2023-04-12T08:31:17;3.30;;;3.00;;
7833;SDS011;3962;42.696;23.354;2023-04-12T08:33:46;5.93;;;2.80;;
7833;SDS011;3962;42.696;23.354;2023-04-12T08:36:12;3.93;;;3.10;;
7833;SDS011;3962;42.696;23.354;2023-04-12T08:38:40;5.67;;;3.20;;
7833;SDS011;3962;42.696;23.354;2023-04-12T08:41:07;5.87;;;3.10;;
7833;SDS011;3962;42.696;23.354;2023-04-12T08:43:33;3.00;;;2.70;;
7833;SDS011;3962;42.696;23.354;2023-04-12T08:46:02;7.10;;;2.83;;
7833;SDS011;3962;42.696;23.354;2023-04-12T08:48:31;4.03;;;2.77;;
7833;SDS011;3962;42.696;23.354;2023-04-12T08:51:01;3.43;;;2.80;;
7833;SDS011;3962;42.696;23.354;2023-04-12T08:53:28;3.23;;;2.80;;
7833;SDS011;3962;42.696;23.354;2023-04-12T08:55:55;3.90;;;2.90;;
7833;SDS011;3962;42.696;23.354;2023-04-12T08:58:22;3.43;;;2.00;;
7833;SDS011;3962;42.696;23.354;2023-04-12T09:00:49;3.60;;;2.20;;
7833;SDS011;3962;42.696;23.354;2023-04-12T09:03:17;3.00;;;2.70;;
7833;SDS011;3962;42.696;23.354;2023-04-12T09:05:43;5.27;;;2.80;;
7833;SDS011;3962;42.696;23.354;2023-04-12T09:08:12;4.83;;;2.40;;
7833;SDS011;3962;42.696;23.354;2023-04-12T09:10:39;7.53;;;2.60;;
7833;SDS011;3962;42.696;23.354;2023-04-12T09:13:07;5.17;;;2.40;;
7833;SDS011;3962;42.696;23.354;2023-04-12T09:15:34;4.97;;;2.20;;
7833;SDS011;3962;42.696;23.354;2023-04-12T09:18:02;3.30;;;2.20;;
7833;SDS011;3962;42.696;23.354;2023-04-12T09:20:30;2.40;;;2.20;;
7833;SDS011;3962;42.696;23.354;2023-04-12T09:22:57;3.17;;;2.73;;
7833;SDS011;3962;42.696;23.354;2023-04-12T09:25:36;8.23;;;2.30;;
7833;SDS011;3962;42.696;23.354;2023-04-12T09:28:16;4.23;;;1.97;;
7833;SDS011;3962;42.696;23.354;2023-04-12T09:30:47;2.83;;;2.00;;
7833;SDS011;3962;42.696;23.354;2023-04-12T09:33:17;3.27;;;1.90;;
7833;SDS011;3962;42.696;23.354;2023-04-12T09:35:44;2.47;;;2.20;;
7833;SDS011;3962;42.696;23.354;2023-04-12T09:38:12;18.70;;;11.43;;
7833;SDS011;3962;42.696;23.354;2023-04-12T09:40:40;27.37;;;17.33;;
7833;SDS011;3962;42.696;23.354;2023-04-12T09:43:09;5.10;;;2.73;;
7833;SDS011;3962;42.696;23.354;2023-04-12T09:45:36;3.47;;;2.23;;
7833;SDS011;3962;42.696;23.354;2023-04-12T09:48:05;4.90;;;2.60;;
7833;SDS011;3962;42.696;23.354;2023-04-12T09:50:32;4.07;;;2.50;;
7833;SDS011;3962;42.696;23.354;2023-04-12T09:53:00;4.47;;;2.23;;
7833;SDS011;3962;42.696;23.354;2023-04-12T09:55:28;6.27;;;4.50;;
7833;SDS011;3962;42.696;23.354;2023-04-12T09:58:00;3.40;;;2.70;;
7833;SDS011;3962;42.696;23.354;2023-04-12T10:00:29;3.93;;;2.83;;
7833;SDS011;3962;42.696;23.354;2023-04-12T10:02:58;6.73;;;2.20;;
7833;SDS011;3962;42.696;23.354;2023-04-12T10:05:25;2.27;;;1.80;;
7833;SDS011;3962;42.696;23.354;2023-04-12T10:07:55;4.80;;;2.90;;
7833;SDS011;3962;42.696;23.354;2023-04-12T10:10:22;4.43;;;1.63;;
7833;SDS011;3962;42.696;23.354;2023-04-12T10:12:50;2.93;;;1.80;;
7833;SDS011;3962;42.696;23.354;2023-04-12T10:15:18;3.90;;;1.80;;
7833;SDS011;3962;42.696;23.354;2023-04-12T10:17:53;3.58;;;2.08;;
7833;SDS011;3962;42.696;23.354;2023-04-12T10:20:24;11.70;;;4.30;;
7833;SDS011;3962;42.696;23.354;2023-04-12T10:22:51;6.73;;;3.07;;
7833;SDS011;3962;42.696;23.354;2023-04-12T10:25:23;6.87;;;2.83;;
7833;SDS011;3962;42.696;23.354;2023-04-12T10:27:51;6.23;;;1.83;;
7833;SDS011;3962;42.696;23.354;2023-04-12T10:30:21;3.33;;;1.70;;
7833;SDS011;3962;42.696;23.354;2023-04-12T10:32:49;3.97;;;2.00;;
7833;SDS011;3962;42.696;23.354;2023-04-12T10:35:54;3.30;;;1.90;;
7833;SDS011;3962;42.696;23.354;2023-04-12T10:38:23;3.37;;;1.80;;
7833;SDS011;3962;42.696;23.354;2023-04-12T10:41:11;7.20;;;1.80;;
7833;SDS011;3962;42.696;23.354;2023-04-12T10:43:40;4.67;;;1.80;;
7833;SDS011;3962;42.696;23.354;2023-04-12T10:46:08;3.27;;;1.83;;
7833;SDS011;3962;42.696;23.354;2023-04-12T10:49:15;1.70;;;1.53;;
7833;SDS011;3962;42.696;23.354;2023-04-12T10:54:39;5.00;;;1.70;;
7833;SDS011;3962;42.696;23.354;2023-04-12T10:57:06;5.90;;;1.70;;
7833;SDS011;3962;42.696;23.354;2023-04-12T11:02:24;4.27;;;2.70;;
7833;SDS011;3962;42.696;23.354;2023-04-12T11:07:43;10.80;;;3.73;;
7833;SDS011;3962;42.696;23.354;2023-04-12T11:10:12;3.93;;;2.00;;
7833;SDS011;3962;42.696;23.354;2023-04-12T11:12:40;9.97;;;2.50;;
7833;SDS011;3962;42.696;23.354;2023-04-12T11:15:11;8.37;;;2.03;;
7833;SDS011;3962;42.696;23.354;2023-04-12T11:17:40;4.43;;;2.10;;
7833;SDS011;3962;42.696;23.354;2023-04-12T11:20:09;1.87;;;1.53;;
7833;SDS011;3962;42.696;23.354;2023-04-12T11:22:39;2.57;;;1.70;;
7833;SDS011;3962;42.696;23.354;2023-04-12T11:25:06;2.00;;;1.50;;
7833;SDS011;3962;42.696;23.354;2023-04-12T11:27:33;1.60;;;1.47;;
7833;SDS011;3962;42.696;23.354;2023-04-12T11:30:02;2.80;;;1.80;;
7833;SDS011;3962;42.696;23.354;2023-04-12T11:32:29;2.37;;;1.37;;
7833;SDS011;3962;42.696;23.354;2023-04-12T11:34:59;4.60;;;1.90;;
7833;SDS011;3962;42.696;23.354;2023-04-12T11:37:27;1.43;;;1.30;;
7833;SDS011;3962;42.696;23.354;2023-04-12T11:39:56;2.03;;;1.60;;
7833;SDS011;3962;42.696;23.354;2023-04-12T11:42:24;2.17;;;1.60;;
7833;SDS011;3962;42.696;23.354;2023-04-12T11:44:53;1.60;;;1.50;;
7833;SDS011;3962;42.696;23.354;2023-04-12T11:47:21;4.90;;;1.47;;
7833;SDS011;3962;42.696;23.354;2023-04-12T11:49:49;1.97;;;1.70;;
7833;SDS011;3962;42.696;23.354;2023-04-12T11:52:19;1.70;;;1.60;;
7833;SDS011;3962;42.696;23.354;2023-04-12T11:54:47;6.67;;;1.87;;
7833;SDS011;3962;42.696;23.354;2023-04-12T11:57:15;3.10;;;1.97;;
7833;SDS011;3962;42.696;23.354;2023-04-12T11:59:44;3.87;;;1.80;;
7833;SDS011;3962;42.696;23.354;2023-04-12T12:02:12;2.73;;;1.87;;
7833;SDS011;3962;42.696;23.354;2023-04-12T12:04:40;2.10;;;1.53;;
7833;SDS011;3962;42.696;23.354;2023-04-12T12:07:09;2.53;;;1.80;;
7833;SDS011;3962;42.696;23.354;2023-04-12T12:09:39;2.00;;;1.40;;
7833;SDS011;3962;42.696;23.354;2023-04-12T12:12:08;4.13;;;1.60;;
7833;SDS011;3962;42.696;23.354;2023-04-12T12:14:36;2.27;;;1.43;;
7833;SDS011;3962;42.696;23.354;2023-04-12T12:17:10;6.07;;;1.70;;
7833;SDS011;3962;42.696;23.354;2023-04-12T12:19:38;4.47;;;1.60;;
7833;SDS011;3962;42.696;23.354;2023-04-12T12:22:09;7.17;;;2.30;;
7833;SDS011;3962;42.696;23.354;2023-04-12T12:24:44;1.70;;;1.60;;
7833;SDS011;3962;42.696;23.354;2023-04-12T12:27:16;1.43;;;1.33;;
7833;SDS011;3962;42.696;23.354;2023-04-12T12:29:47;5.17;;;2.20;;
7833;SDS011;3962;42.696;23.354;2023-04-12T12:32:15;4.50;;;1.53;;
7833;SDS011;3962;42.696;23.354;2023-04-12T12:34:53;2.83;;;1.50;;
7833;SDS011;3962;42.696;23.354;2023-04-12T12:37:22;3.73;;;1.47;;
7833;SDS011;3962;42.696;23.354;2023-04-12T12:40:01;3.80;;;1.40;;
7833;SDS011;3962;42.696;23.354;2023-04-12T12:42:36;2.73;;;1.80;;
7833;SDS011;3962;42.696;23.354;2023-04-12T12:45:10;2.10;;;1.90;;
7833;SDS011;3962;42.696;23.354;2023-04-12T12:47:44;4.07;;;1.80;;
7833;SDS011;3962;42.696;23.354;2023-04-12T12:50:11;1.40;;;1.30;;
7833;SDS011;3962;42.696;23.354;2023-04-12T12:52:41;2.90;;;1.60;;
7833;SDS011;3962;42.696;23.354;2023-04-12T12:55:09;2.07;;;1.63;;
7833;SDS011;3962;42.696;23.354;2023-04-12T12:57:36;2.07;;;1.40;;
7833;SDS011;3962;42.696;23.354;2023-04-12T13:00:03;3.15;;;1.65;;
7833;SDS011;3962;42.696;23.354;2023-04-12T13:04:59;2.83;;;1.70;;
7833;SDS011;3962;42.696;23.354;2023-04-12T13:07:27;1.77;;;1.63;;
7833;SDS011;3962;42.696;23.354;2023-04-12T13:09:53;3.23;;;1.70;;
7833;SDS011;3962;42.696;23.354;2023-04-12T13:12:22;2.40;;;1.73;;
7833;SDS011;3962;42.696;23.354;2023-04-12T13:14:49;1.57;;;1.40;;
7833;SDS011;3962;42.696;23.354;2023-04-12T13:17:15;1.97;;;1.50;;
7833;SDS011;3962;42.696;23.354;2023-04-12T13:19:43;6.00;;;1.63;;
7833;SDS011;3962;42.696;23.354;2023-04-12T13:22:11;18.60;;;3.07;;
7833;SDS011;3962;42.696;23.354;2023-04-12T13:24:41;1.60;;;1.50;;
7833;SDS011;3962;42.696;23.354;2023-04-12T13:27:11;4.00;;;1.50;;
7833;SDS011;3962;42.696;23.354;2023-04-12T13:29:39;3.83;;;1.90;;
7833;SDS011;3962;42.696;23.354;2023-04-12T13:32:06;2.80;;;1.57;;
7833;SDS011;3962;42.696;23.354;2023-04-12T13:34:34;3.80;;;1.90;;
7833;SDS011;3962;42.696;23.354;2023-04-12T13:37:01;8.97;;;2.87;;
7833;SDS011;3962;42.696;23.354;2023-04-12T13:39:29;4.13;;;2.50;;
7833;SDS011;3962;42.696;23.354;2023-04-12T13:41:56;1.70;;;1.43;;
7833;SDS011;3962;42.696;23.354;2023-04-12T13:44:23;5.97;;;1.90;;
7833;SDS011;3962;42.696;23.354;2023-04-12T13:46:53;4.30;;;1.67;;
7833;SDS011;3962;42.696;23.354;2023-04-12T13:49:21;9.70;;;2.63;;
7833;SDS011;3962;42.696;23.354;2023-04-12T13:51:49;6.40;;;2.00;;
7833;SDS011;3962;42.696;23.354;2023-04-12T13:54:20;4.10;;;1.50;;
7833;SDS011;3962;42.696;23.354;2023-04-12T13:56:53;2.83;;;1.60;;
7833;SDS011;3962;42.696;23.354;2023-04-12T13:59:21;2.27;;;1.53;;
7833;SDS011;3962;42.696;23.354;2023-04-12T14:01:52;2.00;;;1.80;;
7833;SDS011;3962;42.696;23.354;2023-04-12T14:04:29;4.07;;;1.90;;
7833;SDS011;3962;42.696;23.354;2023-04-12T14:06:58;3.63;;;1.70;;
7833;SDS011;3962;42.696;23.354;2023-04-12T14:09:29;2.87;;;1.43;;
7833;SDS011;3962;42.696;23.354;2023-04-12T14:12:02;5.70;;;1.47;;
7833;SDS011;3962;42.696;23.354;2023-04-12T14:14:32;3.70;;;1.47;;
7833;SDS011;3962;42.696;23.354;2023-04-12T14:17:05;3.43;;;1.60;;
7833;SDS011;3962;42.696;23.354;2023-04-12T14:19:34;2.30;;;1.47;;
7833;SDS011;3962;42.696;23.354;2023-04-12T14:22:06;2.57;;;1.47;;
7833;SDS011;3962;42.696;23.354;2023-04-12T14:24:35;19.23;;;2.97;;
7833;SDS011;3962;42.696;23.354;2023-04-12T14:27:04;3.13;;;1.40;;
7833;SDS011;3962;42.696;23.354;2023-04-12T14:29:32;3.17;;;1.77;;
7833;SDS011;3962;42.696;23.354;2023-04-12T14:32:01;1.70;;;1.47;;
7833;SDS011;3962;42.696;23.354;2023-04-12T14:34:36;4.47;;;2.73;;
7833;SDS011;3962;42.696;23.354;2023-04-12T14:37:03;4.17;;;1.50;;
7833;SDS011;3962;42.696;23.354;2023-04-12T14:39:33;2.50;;;1.70;;
7833;SDS011;3962;42.696;23.354;2023-04-12T14:42:01;2.43;;;1.97;;
7833;SDS011;3962;42.696;23.354;2023-04-12T14:44:29;4.50;;;2.00;;
7833;SDS011;3962;42.696;23.354;2023-04-12T14:46:57;2.80;;;1.70;;
7833;SDS011;3962;42.696;23.354;2023-04-12T14:49:30;1.37;;;1.23;;
7833;SDS011;3962;42.696;23.354;2023-04-12T14:52:00;2.27;;;1.50;;
7833;SDS011;3962;42.696;23.354;2023-04-12T14:54:29;5.33;;;1.90;;
7833;SDS011;3962;42.696;23.354;2023-04-12T14:57:03;1.70;;;1.50;;
7833;SDS011;3962;42.696;23.354;2023-04-12T14:59:34;2.63;;;1.70;;
7833;SDS011;3962;42.696;23.354;2023-04-12T15:02:02;2.07;;;1.73;;
7833;SDS011;3962;42.696;23.354;2023-04-12T15:04:30;1.80;;;1.70;;
7833;SDS011;3962;42.696;23.354;2023-04-12T15:06:57;2.40;;;1.80;;
7833;SDS011;3962;42.696;23.354;2023-04-12T15:09:24;1.70;;;1.60;;
7833;SDS011;3962;42.696;23.354;2023-04-12T15:11:53;2.97;;;1.70;;
7833;SDS011;3962;42.696;23.354;2023-04-12T15:14:25;2.27;;;1.50;;